createdAt,value
2018-07-02T00:02:36.800Z,66.90
2018-07-02T00:05:05.802Z,67.20
2018-07-02T00:07:34.295Z,67.10
2018-07-02T00:10:02.885Z,67.60
2018-07-02T00:12:31.349Z,67.40
2018-07-02T00:14:59.840Z,67.80
2018-07-02T00:17:28.304Z,68.10
2018-07-02T00:19:56.849Z,68.20
2018-07-02T00:22:25.271Z,68.50
2018-07-02T00:24:53.769Z,68.00
2018-07-02T00:27:22.225Z,68.90
2018-07-02T00:29:50.776Z,68.40
2018-07-02T00:32:19.257Z,69.20
2018-07-02T00:37:15.945Z,70.50
2018-07-02T00:39:44.449Z,70.10
2018-07-02T00:42:12.919Z,70.20
2018-07-02T00:44:41.489Z,70.20
2018-07-02T00:47:09.997Z,70.70
2018-07-02T00:49:38.489Z,70.90
2018-07-02T00:52:07.018Z,71.10
2018-07-02T00:54:35.514Z,71.40
2018-07-02T00:57:04.069Z,71.50
2018-07-02T00:59:32.588Z,71.80
2018-07-02T01:02:01.140Z,72.70
2018-07-02T01:04:29.603Z,72.70
2018-07-02T01:06:58.118Z,73.00
2018-07-02T01:09:26.588Z,73.70
2018-07-02T01:11:55.087Z,73.70
2018-07-02T01:14:23.584Z,74.00
2018-07-02T01:16:52.078Z,74.50
2018-07-02T01:19:20.560Z,75.20
2018-07-02T01:21:49.022Z,75.30
2018-07-02T01:24:17.605Z,75.40
2018-07-02T01:26:46.090Z,76.40
2018-07-02T01:29:14.543Z,76.30
2018-07-02T01:31:43.066Z,76.10
2018-07-02T01:34:11.527Z,77.00
2018-07-02T01:36:39.985Z,77.30
2018-07-02T01:39:09.762Z,76.70
2018-07-02T01:44:06.469Z,77.30
2018-07-02T01:46:34.922Z,77.50
2018-07-02T01:49:03.401Z,78.00
2018-07-02T01:51:31.873Z,78.40
2018-07-02T01:54:00.366Z,79.20
2018-07-02T01:56:28.903Z,78.50
2018-07-02T01:58:57.369Z,79.30
2018-07-02T02:01:25.809Z,79.70
2018-07-02T02:03:54.254Z,79.60
2018-07-02T02:08:50.855Z,80.50
2018-07-02T02:11:19.389Z,81.30
2018-07-02T02:16:15.982Z,80.60
2018-07-02T02:18:44.494Z,81.80
2018-07-02T02:21:12.931Z,81.30
2018-07-02T02:23:41.386Z,80.90
2018-07-02T02:28:37.993Z,81.80
2018-07-02T02:31:06.521Z,82.50
2018-07-02T02:36:03.125Z,82.30
2018-07-02T02:38:31.588Z,82.40
2018-07-02T02:41:00.027Z,82.90
2018-07-02T02:43:28.491Z,82.80
2018-07-02T02:45:56.913Z,83.40
2018-07-02T02:48:25.358Z,82.60
2018-07-02T02:50:53.825Z,83.00
2018-07-02T02:53:22.268Z,83.60
2018-07-02T02:55:50.769Z,83.20
2018-07-02T02:58:19.227Z,84.00
2018-07-02T03:00:47.690Z,84.00
2018-07-02T03:03:16.152Z,84.20
2018-07-02T03:08:12.754Z,84.90
2018-07-02T03:10:41.190Z,85.10
2018-07-02T03:13:09.661Z,85.40
2018-07-02T03:15:38.132Z,85.70
2018-07-02T03:20:35.311Z,86.60
2018-07-02T03:23:03.750Z,85.90
2018-07-02T03:25:32.184Z,86.00
2018-07-02T03:28:00.614Z,86.00
2018-07-02T03:30:29.085Z,86.30
2018-07-02T03:32:57.658Z,85.90
2018-07-02T03:35:26.087Z,85.80
2018-07-02T03:37:54.913Z,86.00
2018-07-02T03:40:23.338Z,86.80
2018-07-02T03:42:51.773Z,87.00
2018-07-02T03:45:20.213Z,86.90
2018-07-02T03:47:48.666Z,87.00
2018-07-02T03:50:17.725Z,86.50
2018-07-02T03:52:46.205Z,87.70
2018-07-02T03:55:14.651Z,87.70
2018-07-02T03:57:43.162Z,87.10
2018-07-02T04:00:11.605Z,88.20
2018-07-02T04:02:40.062Z,87.50
2018-07-02T04:05:08.506Z,88.50
2018-07-02T04:07:36.962Z,88.50
2018-07-02T04:10:05.416Z,88.50
2018-07-02T04:12:33.872Z,88.80
2018-07-02T04:15:02.298Z,89.60
2018-07-02T04:17:30.740Z,88.90
2018-07-02T04:19:59.167Z,89.10
2018-07-02T04:22:27.635Z,88.60
2018-07-02T04:24:56.085Z,88.20
2018-07-02T04:27:24.553Z,88.40
2018-07-02T04:29:53.003Z,89.10
2018-07-02T04:32:21.522Z,88.40
2018-07-02T04:34:49.975Z,89.10
2018-07-02T04:37:18.408Z,88.20
2018-07-02T04:39:46.886Z,88.80
2018-07-02T04:42:15.339Z,88.40
2018-07-02T04:44:43.784Z,88.90
2018-07-02T04:47:12.242Z,88.30
2018-07-02T04:49:40.704Z,88.10
2018-07-02T04:52:09.162Z,88.30
2018-07-02T04:54:37.615Z,88.50
2018-07-02T04:57:06.082Z,87.30
2018-07-02T04:59:34.570Z,88.40
2018-07-02T05:04:31.085Z,87.00
2018-07-02T05:09:27.678Z,87.30
2018-07-02T05:11:56.130Z,86.50
2018-07-02T05:14:24.573Z,87.20
2018-07-02T05:16:53.318Z,86.00
2018-07-02T05:19:21.550Z,85.30
2018-07-02T05:24:18.157Z,86.40
2018-07-02T05:26:46.685Z,87.10
2018-07-02T05:29:15.125Z,84.90
2018-07-02T05:31:43.576Z,85.40
2018-07-02T05:34:12.011Z,84.60
2018-07-02T05:36:40.443Z,84.10
2018-07-02T05:39:10.454Z,84.60
2018-07-02T05:41:38.963Z,83.80
2018-07-02T05:44:07.441Z,84.20
2018-07-02T05:46:35.893Z,84.30
2018-07-02T05:49:04.380Z,83.70
2018-07-02T05:51:32.828Z,82.90
2018-07-02T05:56:29.393Z,83.30
2018-07-02T05:58:57.814Z,83.70
2018-07-02T06:01:26.277Z,82.00
2018-07-02T06:03:54.754Z,83.20
2018-07-02T06:06:23.202Z,82.80
2018-07-02T06:08:51.615Z,81.80
2018-07-02T06:11:20.065Z,81.80
2018-07-02T06:16:16.679Z,82.30
2018-07-02T06:18:45.117Z,80.50
2018-07-02T06:21:13.601Z,80.80
2018-07-02T06:23:42.070Z,81.90
2018-07-02T06:26:10.526Z,81.00
2018-07-02T06:28:38.966Z,80.50
2018-07-02T06:31:07.430Z,81.10
2018-07-02T06:33:35.912Z,81.40
2018-07-02T06:36:04.386Z,80.90
2018-07-02T06:38:32.850Z,79.90
2018-07-02T06:41:01.326Z,80.50
2018-07-02T06:43:29.746Z,80.30
2018-07-02T06:45:58.171Z,79.60
2018-07-02T06:48:26.613Z,80.50
2018-07-02T06:50:55.051Z,78.40
2018-07-02T06:53:23.478Z,78.60
2018-07-02T06:55:51.905Z,78.00
2018-07-02T06:58:20.417Z,78.70
2018-07-02T07:00:48.867Z,78.90
2018-07-02T07:03:17.316Z,77.20
2018-07-02T07:05:45.805Z,77.60
2018-07-02T07:10:42.368Z,75.60
2018-07-02T07:13:10.866Z,75.60
2018-07-02T07:15:39.317Z,75.00
2018-07-02T07:20:35.906Z,74.30
2018-07-02T07:23:04.674Z,75.60
2018-07-02T07:28:01.339Z,74.00
2018-07-02T07:30:29.793Z,74.20
2018-07-02T07:32:58.202Z,73.30
2018-07-02T07:35:26.650Z,73.00
2018-07-02T07:37:55.096Z,72.90
2018-07-02T07:40:23.542Z,71.90
2018-07-02T07:42:51.986Z,73.60
2018-07-02T07:45:20.427Z,72.40
2018-07-02T07:47:48.846Z,71.30
2018-07-02T07:52:45.436Z,71.80
2018-07-02T07:55:13.857Z,72.20
2018-07-02T07:57:42.319Z,70.80
2018-07-02T08:00:10.786Z,70.30
2018-07-02T08:02:39.247Z,69.30
2018-07-02T08:05:07.711Z,70.70
2018-07-02T08:07:36.167Z,69.70
2018-07-02T08:12:32.821Z,70.00
2018-07-02T08:17:29.393Z,70.10
2018-07-02T08:19:57.865Z,68.20
2018-07-02T08:24:54.403Z,68.20
2018-07-02T08:27:22.883Z,66.10
2018-07-02T08:29:51.311Z,67.30
2018-07-02T08:32:19.742Z,66.60
2018-07-02T08:34:48.172Z,67.40
2018-07-02T08:37:16.618Z,66.60
2018-07-02T08:39:45.047Z,64.90
2018-07-02T08:42:13.485Z,63.50
2018-07-02T08:44:41.934Z,65.20
2018-07-02T08:49:38.514Z,63.20
2018-07-02T08:52:06.937Z,66.20
2018-07-02T08:54:35.389Z,63.20
2018-07-02T08:57:03.877Z,62.20
2018-07-02T08:59:32.630Z,63.50
2018-07-02T09:02:01.122Z,62.20
2018-07-02T09:04:29.890Z,59.80
2018-07-02T09:06:58.461Z,60.80
2018-07-02T09:09:26.849Z,60.10
2018-07-02T09:11:55.288Z,59.80
2018-07-02T09:14:23.709Z,59.80
2018-07-02T09:19:20.293Z,57.60
2018-07-02T09:21:48.878Z,59.40
2018-07-02T09:24:17.201Z,57.00
2018-07-02T09:26:45.629Z,58.10
2018-07-02T09:29:14.057Z,57.20
2018-07-02T09:31:42.496Z,57.20
2018-07-02T09:34:10.922Z,56.10
2018-07-02T09:36:39.825Z,57.90
2018-07-02T09:39:10.623Z,54.80
2018-07-02T09:41:39.006Z,55.20
2018-07-02T09:44:07.533Z,54.90
2018-07-02T09:46:36.313Z,53.50
2018-07-02T09:51:33.387Z,51.50
2018-07-02T09:56:30.976Z,52.90
2018-07-02T09:58:59.414Z,51.70
2018-07-02T10:01:27.821Z,49.40
2018-07-02T10:06:24.438Z,48.60
2018-07-02T10:08:52.924Z,46.90
2018-07-02T10:11:21.350Z,49.00
2018-07-02T10:13:49.789Z,49.50
2018-07-02T10:16:18.222Z,48.40
2018-07-02T10:18:46.706Z,46.40
2018-07-02T10:21:15.159Z,47.20
2018-07-02T10:23:43.677Z,46.60
2018-07-02T10:26:12.070Z,47.20
2018-07-02T10:28:40.490Z,44.10
2018-07-02T10:31:09.050Z,41.50
2018-07-02T10:33:37.436Z,41.60
2018-07-02T10:36:05.945Z,43.60
2018-07-02T10:38:34.559Z,41.30
2018-07-02T10:41:03.014Z,41.60
2018-07-02T10:43:33.878Z,42.90
2018-07-02T10:46:02.359Z,40.40
2018-07-02T10:48:30.783Z,40.50
2018-07-02T10:50:59.230Z,40.30
2018-07-02T10:53:28.341Z,41.10
2018-07-02T10:55:56.947Z,39.40
2018-07-02T11:00:53.535Z,39.70
2018-07-02T11:03:22.001Z,38.50
2018-07-02T11:05:50.502Z,37.40
2018-07-02T11:08:18.939Z,36.70
2018-07-02T11:10:48.073Z,35.90
2018-07-02T11:13:16.503Z,35.80
2018-07-02T11:15:44.949Z,35.90
2018-07-02T11:18:13.388Z,38.00
2018-07-02T11:20:42.353Z,36.00
2018-07-02T11:25:39.442Z,32.70
2018-07-02T11:28:08.082Z,33.90
2018-07-02T11:30:36.687Z,32.40
2018-07-02T11:33:05.346Z,34.70
2018-07-02T11:35:33.805Z,35.30
2018-07-02T11:38:02.382Z,34.40
2018-07-02T11:40:30.905Z,34.90
2018-07-02T11:42:59.414Z,33.70
2018-07-02T11:45:27.853Z,33.00
2018-07-02T11:47:56.309Z,33.30
2018-07-02T11:50:24.778Z,36.50
2018-07-02T11:52:53.343Z,33.80
2018-07-02T11:55:21.806Z,34.20
2018-07-02T12:00:18.409Z,37.80
2018-07-02T12:02:46.877Z,36.50
2018-07-02T12:05:15.339Z,35.70
2018-07-02T12:07:43.786Z,37.10
2018-07-02T12:12:40.373Z,36.90
2018-07-02T12:15:08.839Z,34.50
2018-07-02T12:17:37.269Z,35.20
2018-07-02T12:20:05.972Z,33.20
2018-07-02T12:22:34.403Z,37.20
2018-07-02T12:25:02.837Z,36.90
2018-07-02T12:27:31.310Z,37.20
2018-07-02T12:29:59.790Z,35.40
2018-07-02T12:32:28.234Z,33.50
2018-07-02T12:34:56.734Z,33.10
2018-07-02T12:37:25.170Z,33.70
2018-07-02T12:39:53.597Z,33.40
2018-07-02T12:42:22.078Z,33.40
2018-07-02T12:44:50.554Z,33.70
2018-07-02T12:47:19.033Z,33.20
2018-07-02T12:49:47.499Z,32.50
2018-07-02T12:52:15.946Z,35.10
2018-07-02T12:54:44.414Z,32.90
2018-07-02T12:59:40.990Z,34.60
2018-07-02T13:02:09.489Z,34.60
2018-07-02T13:04:37.921Z,36.00
2018-07-02T13:09:34.554Z,32.10
2018-07-02T13:12:03.575Z,32.00
2018-07-02T13:14:31.989Z,33.10
2018-07-02T13:17:00.506Z,33.20
2018-07-02T13:19:28.908Z,33.80
2018-07-02T13:24:25.457Z,31.90
2018-07-02T13:26:53.929Z,32.20
2018-07-02T13:29:22.341Z,33.20
2018-07-02T13:31:50.766Z,32.80
2018-07-02T13:34:19.195Z,30.80
2018-07-02T13:36:47.633Z,31.80
2018-07-02T13:39:16.090Z,33.40
2018-07-02T13:41:44.535Z,31.10
2018-07-02T13:44:12.981Z,28.40
2018-07-02T13:46:41.420Z,27.50
2018-07-02T13:49:09.907Z,26.90
2018-07-02T13:51:38.350Z,26.10
2018-07-02T13:54:06.848Z,26.90
2018-07-02T13:56:35.706Z,27.50
2018-07-02T13:59:04.319Z,28.60
2018-07-02T14:01:32.770Z,28.00
2018-07-02T14:04:01.267Z,28.00
2018-07-02T14:06:29.717Z,28.20
2018-07-02T14:08:58.169Z,25.90
2018-07-02T14:11:26.609Z,25.60
2018-07-02T14:13:55.003Z,27.30
2018-07-02T14:16:23.475Z,27.00
2018-07-02T14:18:51.890Z,28.90
2018-07-02T14:21:20.346Z,30.60
2018-07-02T14:23:48.777Z,29.60
2018-07-02T14:28:45.361Z,26.10
2018-07-02T14:31:13.850Z,26.10
2018-07-02T14:33:43.641Z,26.20
2018-07-02T14:38:40.408Z,27.70
2018-07-02T14:41:08.897Z,27.00
2018-07-02T14:43:37.655Z,24.90
2018-07-02T14:48:34.276Z,25.00
2018-07-02T14:51:02.760Z,25.20
2018-07-02T14:53:31.186Z,25.90
2018-07-02T14:55:59.667Z,27.90
2018-07-02T14:58:28.103Z,26.30
2018-07-02T15:00:56.637Z,26.10
2018-07-02T15:03:25.050Z,25.50
2018-07-02T15:05:53.499Z,25.20
2018-07-02T15:08:21.909Z,25.30
2018-07-02T15:10:50.337Z,24.40
2018-07-02T15:13:18.793Z,26.00
2018-07-02T15:18:15.817Z,26.10
2018-07-02T15:20:44.214Z,25.50
2018-07-02T15:23:12.946Z,25.10
2018-07-02T15:25:41.380Z,24.80
2018-07-02T15:28:09.829Z,25.20
2018-07-02T15:30:38.294Z,25.00
2018-07-02T15:33:06.769Z,26.30
2018-07-02T15:35:35.224Z,25.50
2018-07-02T15:40:31.805Z,25.00
2018-07-02T15:43:00.255Z,25.70
2018-07-02T15:45:28.718Z,26.10
2018-07-02T15:47:57.149Z,27.20
2018-07-02T15:50:25.570Z,29.20
2018-07-02T15:52:54.851Z,30.60
2018-07-02T15:55:23.306Z,32.20
2018-07-02T15:57:51.869Z,34.20
2018-07-02T16:00:20.220Z,35.00
2018-07-02T16:02:48.653Z,35.40
2018-07-02T16:05:17.113Z,34.90
2018-07-02T16:07:45.543Z,35.50
2018-07-02T16:10:13.985Z,35.10
2018-07-02T16:12:42.411Z,35.50
2018-07-02T16:15:10.870Z,35.20
2018-07-02T16:17:39.316Z,35.20
2018-07-02T16:20:07.834Z,35.60
2018-07-02T16:22:36.294Z,36.90
2018-07-02T16:25:04.794Z,34.80
2018-07-02T16:27:33.235Z,33.20
2018-07-02T16:30:01.738Z,34.10
2018-07-02T16:32:30.207Z,35.50
2018-07-02T16:34:58.727Z,36.80
2018-07-02T16:37:27.149Z,37.50
2018-07-02T16:39:55.613Z,37.30
2018-07-02T16:42:24.065Z,38.50
2018-07-02T16:44:52.498Z,38.00
2018-07-02T16:47:20.977Z,38.30
2018-07-02T16:49:49.409Z,39.10
2018-07-02T16:52:17.850Z,39.90
2018-07-02T16:54:46.318Z,39.50
2018-07-02T16:57:14.793Z,40.90
2018-07-02T16:59:43.235Z,42.20
2018-07-02T17:02:11.747Z,41.20
2018-07-02T17:04:40.164Z,40.30
2018-07-02T17:07:08.677Z,40.20
2018-07-02T17:09:37.131Z,39.60
2018-07-02T17:12:05.633Z,40.50
2018-07-02T17:14:34.095Z,41.30
2018-07-02T17:17:02.581Z,41.90
2018-07-02T17:19:31.011Z,40.90
2018-07-02T17:21:59.454Z,40.80
2018-07-02T17:24:27.876Z,40.70
2018-07-02T17:26:56.362Z,41.30
2018-07-02T17:29:24.848Z,41.70
2018-07-02T17:31:53.390Z,42.60
2018-07-02T17:34:21.837Z,40.70
2018-07-02T17:36:50.320Z,43.30
2018-07-02T17:39:19.075Z,42.00
2018-07-02T17:41:47.529Z,42.50
2018-07-02T17:44:15.989Z,42.30
2018-07-02T17:49:12.622Z,43.30
2018-07-02T17:51:41.073Z,43.80
2018-07-02T17:54:09.501Z,44.30
2018-07-02T17:56:37.962Z,44.70
2018-07-02T17:59:06.397Z,43.90
2018-07-02T18:01:34.856Z,45.10
2018-07-02T18:08:59.641Z,46.70
2018-07-02T18:11:28.101Z,46.90
2018-07-02T18:13:56.578Z,45.80
2018-07-02T18:16:25.015Z,46.40
2018-07-02T18:21:21.545Z,47.90
2018-07-02T18:23:50.015Z,47.90
2018-07-02T18:26:18.432Z,49.10
2018-07-02T18:28:46.874Z,49.40
2018-07-02T18:31:15.381Z,50.00
2018-07-02T18:33:43.834Z,49.50
2018-07-02T18:36:12.274Z,51.00
2018-07-02T18:38:41.246Z,51.10
2018-07-02T18:41:09.705Z,51.30
2018-07-02T18:43:38.213Z,52.20
2018-07-02T18:46:06.746Z,52.30
2018-07-02T18:48:35.194Z,52.90
2018-07-02T18:51:03.675Z,53.40
2018-07-02T18:53:32.109Z,54.10
2018-07-02T18:56:00.724Z,54.40
2018-07-02T18:58:29.639Z,55.30
2018-07-02T19:00:58.112Z,55.40
2018-07-02T19:03:26.615Z,55.60
2018-07-02T19:05:55.202Z,57.10
2018-07-02T19:08:24.031Z,58.50
2018-07-02T19:10:52.455Z,58.10
2018-07-02T19:13:20.953Z,58.80
2018-07-02T19:15:49.385Z,59.70
2018-07-02T19:18:17.836Z,61.20
2018-07-02T19:23:14.454Z,64.30
2018-07-02T19:25:42.901Z,63.50
2018-07-02T19:28:11.107Z,64.20
2018-07-02T19:30:39.556Z,66.10
2018-07-02T19:33:08.070Z,66.80
2018-07-02T19:35:36.549Z,68.70
2018-07-02T19:38:05.032Z,70.30
2018-07-02T19:40:33.522Z,69.80
2018-07-02T19:43:02.007Z,71.50
2018-07-02T19:45:30.449Z,73.60
2018-07-02T19:47:58.901Z,74.00
2018-07-02T19:52:55.559Z,76.30
2018-07-02T19:55:24.197Z,77.10
2018-07-02T19:57:52.698Z,76.20
2018-07-02T20:00:21.143Z,77.30
2018-07-02T20:02:49.646Z,76.60
2018-07-02T20:05:18.098Z,77.20
2018-07-02T20:07:46.550Z,76.20
2018-07-02T20:10:14.997Z,76.90
2018-07-02T20:12:44.281Z,77.80
2018-07-02T20:15:12.763Z,78.20
2018-07-02T20:17:41.207Z,78.50
2018-07-02T20:20:10.806Z,79.30
2018-07-02T20:22:39.679Z,78.20
2018-07-02T20:25:08.481Z,79.40
2018-07-02T20:27:37.032Z,80.20
2018-07-02T20:32:34.442Z,81.20
2018-07-02T20:35:02.934Z,81.00
2018-07-02T20:37:31.461Z,81.00
2018-07-02T20:42:28.125Z,80.90
2018-07-02T20:47:24.763Z,81.70
2018-07-02T20:49:53.205Z,81.70
2018-07-02T20:52:21.639Z,82.20
2018-07-02T20:57:18.230Z,79.70
2018-07-02T20:59:46.707Z,79.40
2018-07-02T21:02:15.193Z,80.20
2018-07-02T21:04:43.617Z,82.00
2018-07-02T21:07:12.076Z,82.10
2018-07-02T21:09:40.530Z,82.80
2018-07-02T21:12:09.033Z,82.20
2018-07-02T21:14:37.453Z,82.70
2018-07-02T21:17:05.894Z,83.40
2018-07-02T21:19:34.346Z,83.30
2018-07-02T21:22:02.808Z,83.00
2018-07-02T21:24:31.237Z,84.60
2018-07-02T21:26:59.711Z,86.20
2018-07-02T21:29:28.174Z,86.30
2018-07-02T21:31:56.630Z,87.80
2018-07-02T21:34:25.053Z,87.30
2018-07-02T21:36:53.514Z,87.70
2018-07-02T21:39:21.960Z,87.10
2018-07-02T21:41:50.392Z,87.90
2018-07-02T21:44:18.809Z,88.20
2018-07-02T21:46:47.234Z,88.30
2018-07-02T21:49:15.681Z,89.00
2018-07-02T21:51:44.098Z,89.40
2018-07-02T21:54:12.571Z,88.70
2018-07-02T21:56:40.978Z,89.20
2018-07-02T21:59:09.536Z,90.10
2018-07-02T22:01:38.037Z,90.00
2018-07-02T22:04:06.530Z,90.00
2018-07-02T22:06:34.978Z,89.70
2018-07-02T22:09:04.042Z,90.20
2018-07-02T22:11:32.480Z,90.70
2018-07-02T22:14:00.946Z,90.50
2018-07-02T22:16:29.409Z,90.30
2018-07-02T22:18:57.876Z,90.40
2018-07-02T22:21:26.280Z,90.30
2018-07-02T22:23:54.697Z,90.30
2018-07-02T22:28:51.273Z,89.70
2018-07-02T22:31:19.761Z,89.10
2018-07-02T22:33:48.198Z,89.40
2018-07-02T22:38:44.797Z,88.30
2018-07-02T22:41:13.225Z,89.00
2018-07-02T22:43:41.694Z,89.40
2018-07-02T22:46:10.134Z,88.40
2018-07-02T22:48:38.573Z,88.70
2018-07-02T22:53:35.157Z,89.40
2018-07-02T22:56:04.766Z,89.90
2018-07-02T22:58:33.213Z,88.50
2018-07-02T23:03:30.257Z,89.40
2018-07-02T23:05:58.705Z,88.90
2018-07-02T23:08:27.585Z,88.80
2018-07-02T23:10:56.346Z,89.50
2018-07-02T23:13:25.117Z,89.60
2018-07-02T23:15:58.716Z,88.50
2018-07-02T23:18:27.134Z,87.80
2018-07-02T23:20:55.569Z,88.20
2018-07-02T23:23:23.985Z,88.80
2018-07-02T23:25:53.392Z,87.40
2018-07-02T23:28:21.824Z,88.60
2018-07-02T23:30:50.306Z,88.20
2018-07-02T23:33:18.738Z,88.60
2018-07-02T23:35:47.365Z,89.60
2018-07-02T23:38:15.809Z,89.50
2018-07-02T23:40:44.274Z,89.10
2018-07-02T23:43:12.712Z,90.10
2018-07-02T23:45:41.218Z,90.60
2018-07-02T23:48:09.701Z,89.00
2018-07-02T23:50:38.107Z,88.80
2018-07-02T23:53:06.589Z,90.10
2018-07-02T23:55:35.009Z,90.70
2018-07-02T23:58:03.514Z,90.90
